Time;durP1;ratioP1;P1;durP2;ratioP2;P2;SDS_P1;SDS_P2;PMS_P1;PMS_P2;Temp;Humidity;BMP_temperature;BMP_pressure;BME280_temperature;BME280_humidity;BME280_pressure;Samples;Min_cycle;Max_cycle;Signal;HPM_P1;HPM_P2
2022/08/23 00:01:45;;;;;;;8.35;3.83;;;16.70;99.90;;;;;;6116642;23;20076;-81
2022/08/23 00:04:14;;;;;;;5.82;2.80;;;16.60;99.90;;;;;;6093349;23;20014;-81
2022/08/23 00:06:41;;;;;;;3.30;2.03;;;16.60;99.90;;;;;;6093296;23;20026;-81
2022/08/23 00:09:08;;;;;;;5.80;2.25;;;16.60;99.90;;;;;;6091987;23;20092;-81
2022/08/23 00:11:40;;;;;;;4.15;1.98;;;16.50;99.90;;;;;;6117520;23;20022;-81
2022/08/23 00:14:12;;;;;;;1.25;0.95;;;16.50;99.90;;;;;;6117264;23;20396;-81
2022/08/23 00:16:39;;;;;;;3.90;1.42;;;16.50;99.90;;;;;;6091941;23;20018;-81
2022/08/23 00:19:06;;;;;;;1.15;0.60;;;16.40;99.90;;;;;;6092736;23;20068;-81
2022/08/23 00:21:34;;;;;;;1.58;1.00;;;16.40;99.90;;;;;;6093389;23;20025;-81
2022/08/23 00:24:00;;;;;;;1.55;0.80;;;16.30;99.90;;;;;;6116851;23;20164;-81
2022/08/23 00:26:26;;;;;;;2.35;0.80;;;16.30;99.90;;;;;;6119002;23;20057;-81
2022/08/23 00:28:52;;;;;;;2.05;1.23;;;16.20;99.90;;;;;;6116641;23;20295;-81
2022/08/23 00:31:18;;;;;;;2.88;1.27;;;16.20;99.90;;;;;;6092147;23;20018;-80
2022/08/23 00:33:44;;;;;;;4.32;2.05;;;16.20;99.90;;;;;;6117584;23;20355;-81
2022/08/23 00:36:10;;;;;;;9.02;2.08;;;16.20;99.90;;;;;;6116419;23;20358;-81
2022/08/23 00:38:36;;;;;;;6.30;2.47;;;16.10;99.90;;;;;;6117468;23;20050;-80
2022/08/23 00:41:03;;;;;;;4.45;2.50;;;16.20;99.90;;;;;;6093669;23;20092;-81
2022/08/23 00:49:20;;;;;;;8.95;3.50;;;16.10;99.90;;;;;;6117243;23;20022;-81
2022/08/23 00:52:01;;;;;;;7.22;3.22;;;16.10;99.90;;;;;;6092825;23;20092;-81
2022/08/23 00:54:28;;;;;;;6.03;3.25;;;16.10;99.90;;;;;;6117656;23;20328;-81
2022/08/23 00:56:57;;;;;;;5.78;3.05;;;16.10;99.90;;;;;;6116152;23;20097;-81
2022/08/23 00:59:24;;;;;;;11.68;4.22;;;16.00;99.90;;;;;;6117563;23;20051;-81
2022/08/23 01:01:50;;;;;;;4.43;3.22;;;16.10;99.90;;;;;;6093205;23;20018;-81
2022/08/23 01:04:16;;;;;;;9.20;3.75;;;16.00;99.90;;;;;;6092190;23;20024;-81
2022/08/23 01:06:49;;;;;;;6.10;3.95;;;16.00;99.90;;;;;;6117883;23;20025;-81
2022/08/23 01:09:18;;;;;;;9.50;4.88;;;16.00;99.90;;;;;;6092984;23;20021;-81
2022/08/23 01:11:58;;;;;;;10.48;4.15;;;16.00;99.90;;;;;;6116719;23;20041;-80
2022/08/23 01:14:31;;;;;;;11.07;5.00;;;15.90;99.90;;;;;;6093076;23;20064;-80
2022/08/23 01:17:04;;;;;;;12.40;5.38;;;15.90;99.90;;;;;;6093044;23;20074;-81
2022/08/23 01:19:41;;;;;;;10.57;4.88;;;15.90;99.90;;;;;;6091917;23;20105;-81
2022/08/23 01:22:17;;;;;;;10.25;5.22;;;15.90;99.90;;;;;;6092631;23;20463;-81
2022/08/23 01:24:44;;;;;;;13.55;4.45;;;15.90;99.90;;;;;;6117972;23;20022;-80
2022/08/23 01:27:11;;;;;;;6.93;4.18;;;15.80;99.90;;;;;;6115597;23;20029;-80
2022/08/23 01:29:38;;;;;;;11.38;4.97;;;15.90;99.90;;;;;;6117869;23;20024;-81
2022/08/23 01:32:04;;;;;;;7.38;4.20;;;15.90;99.90;;;;;;6091050;23;20093;-81
2022/08/23 01:34:30;;;;;;;9.55;4.72;;;15.80;99.90;;;;;;6117151;23;20022;-81
2022/08/23 01:36:57;;;;;;;5.70;4.03;;;15.80;99.90;;;;;;6117323;23;20028;-81
2022/08/23 01:39:23;;;;;;;7.38;3.80;;;15.80;99.90;;;;;;6116200;23;20082;-81
2022/08/23 01:41:50;;;;;;;8.57;3.28;;;15.80;99.90;;;;;;6117747;23;20029;-81
2022/08/23 01:44:16;;;;;;;3.72;2.40;;;15.80;99.90;;;;;;6091971;23;20014;-81
2022/08/23 01:46:45;;;;;;;3.22;1.73;;;15.80;99.90;;;;;;6091636;23;20022;-81
2022/08/23 01:49:11;;;;;;;2.75;1.40;;;15.80;99.90;;;;;;6116480;23;20018;-80
2022/08/23 01:51:37;;;;;;;4.28;2.83;;;15.70;99.90;;;;;;6117263;23;20026;-81
2022/08/23 01:54:03;;;;;;;3.33;2.30;;;15.70;99.90;;;;;;6116100;23;20018;-81
2022/08/23 01:56:31;;;;;;;7.13;2.15;;;15.60;99.90;;;;;;6092608;23;20021;-81
2022/08/23 01:58:57;;;;;;;3.85;2.20;;;15.50;99.90;;;;;;6093081;23;20029;-81
2022/08/23 02:01:23;;;;;;;6.00;2.35;;;15.50;99.90;;;;;;6115563;23;20022;-80
2022/08/23 02:03:49;;;;;;;4.55;2.83;;;15.50;99.90;;;;;;6119176;23;20350;-81
2022/08/23 02:06:14;;;;;;;9.43;2.75;;;15.50;99.90;;;;;;6118700;23;20014;-81
2022/08/23 02:11:26;;;;;;;4.05;3.28;;;15.50;99.90;;;;;;6118706;23;20017;-80
2022/08/23 02:13:54;;;;;;;6.13;3.00;;;15.50;99.90;;;;;;6094597;23;20022;-81
2022/08/23 02:16:36;;;;;;;2.85;2.17;;;15.40;99.90;;;;;;6117477;23;20014;-81
2022/08/23 02:19:06;;;;;;;3.08;2.05;;;15.40;99.90;;;;;;6095330;23;20054;-81
2022/08/23 02:21:35;;;;;;;4.03;2.60;;;15.30;99.90;;;;;;6117745;23;20077;-80
2022/08/23 02:24:05;;;;;;;5.85;2.50;;;15.30;99.90;;;;;;6119482;23;20459;-81
2022/08/23 02:26:31;;;;;;;5.75;2.08;;;15.30;99.90;;;;;;6118324;23;20105;-81
2022/08/23 02:28:57;;;;;;;5.07;2.67;;;15.20;99.90;;;;;;6118154;23;20123;-81
2022/08/23 02:31:23;;;;;;;5.07;2.67;;;15.20;99.90;;;;;;6118385;23;20454;-82
2022/08/23 02:33:48;;;;;;;6.97;3.47;;;15.20;99.90;;;;;;6094119;23;20021;-81
2022/08/23 02:36:14;;;;;;;7.28;4.35;;;15.20;99.90;;;;;;6093514;23;20045;-81
2022/08/23 02:38:40;;;;;;;9.07;4.75;;;15.20;99.90;;;;;;6117099;23;20076;-81
2022/08/23 02:41:06;;;;;;;8.18;4.93;;;15.20;99.90;;;;;;6094347;23;20168;-81
2022/08/23 02:43:32;;;;;;;8.18;4.75;;;15.30;99.90;;;;;;6117361;23;20026;-81
2022/08/23 02:45:58;;;;;;;9.15;5.50;;;15.30;99.90;;;;;;6093241;23;20355;-81
2022/08/23 02:48:24;;;;;;;9.52;4.90;;;15.30;99.90;;;;;;6118430;23;20439;-81
2022/08/23 02:50:50;;;;;;;8.48;3.92;;;15.30;99.90;;;;;;6117692;23;20045;-81
2022/08/23 02:53:16;;;;;;;5.82;3.97;;;15.30;99.90;;;;;;6117833;23;20013;-81
2022/08/23 02:55:45;;;;;;;5.30;3.70;;;15.30;99.90;;;;;;6118462;23;20029;-80
2022/08/23 02:58:11;;;;;;;2.65;2.05;;;15.20;99.90;;;;;;6092574;23;20052;-81
2022/08/23 03:00:37;;;;;;;4.82;2.33;;;15.20;99.90;;;;;;6118052;23;20030;-81
2022/08/23 03:03:04;;;;;;;3.95;2.10;;;15.10;99.90;;;;;;6093543;23;20018;-81
2022/08/23 03:05:31;;;;;;;2.92;1.88;;;15.10;99.90;;;;;;6117447;23;20073;-81
2022/08/23 03:07:57;;;;;;;9.70;3.25;;;15.10;99.90;;;;;;6093311;23;20026;-81
2022/08/23 03:10:23;;;;;;;4.38;2.60;;;15.10;99.90;;;;;;6117891;23;20109;-81
2022/08/23 03:12:49;;;;;;;3.92;2.28;;;15.00;99.90;;;;;;6117423;23;20014;-81
2022/08/23 03:15:14;;;;;;;5.25;3.03;;;15.00;99.90;;;;;;6116780;23;20097;-80
2022/08/23 03:17:40;;;;;;;7.00;3.90;;;15.00;99.90;;;;;;6117416;23;20105;-81
2022/08/23 03:20:07;;;;;;;10.40;4.40;;;15.00;99.90;;;;;;6093617;23;20037;-81
2022/08/23 03:22:33;;;;;;;5.72;4.30;;;15.00;99.90;;;;;;6093606;23;20356;-81
2022/08/23 03:25:00;;;;;;;8.15;4.85;;;14.90;99.90;;;;;;6093777;23;20024;-81
2022/08/23 03:27:26;;;;;;;7.90;5.22;;;14.90;99.90;;;;;;6117125;23;20081;-81
2022/08/23 03:29:52;;;;;;;5.55;4.30;;;14.90;99.90;;;;;;6094425;23;20056;-81
2022/08/23 03:32:18;;;;;;;6.63;4.60;;;14.90;99.90;;;;;;6091480;23;20018;-81
2022/08/23 03:34:43;;;;;;;11.10;5.13;;;14.90;99.90;;;;;;6118319;23;20022;-81
2022/08/23 03:37:09;;;;;;;21.63;9.82;;;14.90;99.90;;;;;;6093014;23;20013;-81
2022/08/23 03:39:35;;;;;;;8.77;5.90;;;14.90;99.90;;;;;;6092595;23;20354;-81
2022/08/23 03:42:01;;;;;;;8.57;5.50;;;14.90;99.90;;;;;;6117902;23;20168;-81
2022/08/23 03:44:27;;;;;;;9.65;6.22;;;15.00;99.90;;;;;;6117047;23;20471;-81
2022/08/23 03:46:53;;;;;;;6.03;4.00;;;15.00;99.90;;;;;;6092343;23;20328;-81
2022/08/23 03:49:18;;;;;;;6.55;2.80;;;14.90;99.90;;;;;;6117545;23;20018;-81
2022/08/23 03:51:44;;;;;;;3.42;2.10;;;14.90;99.90;;;;;;6117817;23;20054;-82
2022/08/23 03:54:10;;;;;;;6.45;3.25;;;14.80;99.90;;;;;;6116870;23;20026;-81
2022/08/23 03:56:39;;;;;;;6.70;4.30;;;14.80;99.90;;;;;;6093166;23;20482;-81
2022/08/23 03:59:08;;;;;;;6.97;4.25;;;14.80;99.90;;;;;;6093104;23;20387;-81
2022/08/23 04:01:35;;;;;;;8.68;6.55;;;14.70;99.90;;;;;;6115895;23;20100;-81
2022/08/23 04:04:01;;;;;;;10.23;4.28;;;14.70;99.90;;;;;;6117277;23;20056;-81
2022/08/23 04:06:27;;;;;;;5.78;4.68;;;14.80;99.90;;;;;;6115179;23;20373;-81
2022/08/23 04:08:53;;;;;;;12.15;5.95;;;14.80;99.90;;;;;;6117314;23;20089;-82
2022/08/23 04:11:20;;;;;;;6.88;4.63;;;14.80;99.90;;;;;;6118038;23;20442;-81
2022/08/23 04:13:46;;;;;;;7.13;5.03;;;14.70;99.90;;;;;;6115939;23;20010;-81
2022/08/23 04:16:12;;;;;;;8.05;4.70;;;14.70;99.90;;;;;;6092866;23;20354;-81
2022/08/23 04:18:38;;;;;;;8.00;5.15;;;14.70;99.90;;;;;;6088669;23;20037;-82
2022/08/23 04:21:09;;;;;;;6.72;3.60;;;14.70;99.90;;;;;;6091516;23;20022;-81
2022/08/23 04:23:36;;;;;;;7.20;3.47;;;14.70;99.90;;;;;;6117223;23;20018;-82
2022/08/23 04:26:04;;;;;;;3.20;2.08;;;14.60;99.90;;;;;;6093487;23;20022;-82
2022/08/23 04:28:30;;;;;;;5.78;2.65;;;14.60;99.90;;;;;;6090641;23;20089;-82
2022/08/23 04:30:59;;;;;;;7.95;5.03;;;14.60;99.90;;;;;;6093645;23;20085;-82
2022/08/23 04:33:25;;;;;;;14.25;6.30;;;14.60;99.90;;;;;;6092436;23;20014;-81
2022/08/23 04:35:51;;;;;;;9.02;6.82;;;14.60;99.90;;;;;;6116937;23;20073;-81
2022/08/23 04:38:16;;;;;;;14.90;8.77;;;14.60;99.90;;;;;;6093016;23;20024;-82
2022/08/23 04:43:27;;;;;;;11.73;8.27;;;14.60;99.90;;;;;;6115384;23;20193;-82
2022/08/23 04:45:53;;;;;;;15.90;11.07;;;14.60;99.90;;;;;;6093352;23;20022;-82
2022/08/23 04:48:18;;;;;;;13.75;9.73;;;14.60;99.90;;;;;;6092395;23;20021;-82
2022/08/23 04:50:44;;;;;;;14.23;10.18;;;14.70;99.90;;;;;;6092305;23;20018;-82
2022/08/23 04:53:10;;;;;;;14.48;11.65;;;14.80;99.90;;;;;;6093000;23;20156;-82
2022/08/23 04:55:36;;;;;;;16.58;11.65;;;14.80;99.90;;;;;;6116909;23;20021;-82
2022/08/23 04:58:03;;;;;;;18.52;11.25;;;15.00;99.90;;;;;;6092157;23;20104;-82
2022/08/23 05:00:29;;;;;;;13.77;10.88;;;15.00;99.90;;;;;;6116106;23;20092;-82
2022/08/23 05:02:55;;;;;;;13.88;10.15;;;15.00;99.90;;;;;;6117553;23;20054;-81
2022/08/23 05:05:21;;;;;;;9.85;8.25;;;15.10;99.90;;;;;;6115723;23;20026;-81
2022/08/23 05:07:47;;;;;;;9.00;7.90;;;15.10;99.90;;;;;;6116585;23;20029;-81
2022/08/23 05:10:14;;;;;;;17.67;11.85;;;15.20;99.90;;;;;;6116106;23;20095;-81
2022/08/23 05:12:41;;;;;;;16.70;11.55;;;15.20;99.90;;;;;;6091775;23;20026;-81
2022/08/23 05:15:09;;;;;;;10.48;7.60;;;15.20;99.90;;;;;;6117106;23;20497;-82
2022/08/23 05:17:35;;;;;;;15.55;9.05;;;15.30;99.90;;;;;;6091459;23;20022;-82
2022/08/23 05:20:02;;;;;;;8.70;7.22;;;15.30;99.90;;;;;;6093268;23;20010;-82
2022/08/23 05:22:32;;;;;;;10.48;8.27;;;15.40;99.90;;;;;;6116658;23;20033;-82
2022/08/23 05:24:58;;;;;;;11.38;7.32;;;15.40;99.90;;;;;;6116554;23;20032;-82
2022/08/23 05:27:24;;;;;;;8.75;7.22;;;15.40;99.90;;;;;;6091429;23;20053;-82
2022/08/23 05:29:53;;;;;;;9.98;8.68;;;15.40;99.90;;;;;;6117198;23;20048;-82
2022/08/23 05:32:20;;;;;;;11.23;8.10;;;15.50;99.90;;;;;;6090912;23;20026;-82
2022/08/23 05:34:46;;;;;;;15.32;9.40;;;15.50;99.90;;;;;;6092592;23;20021;-82
2022/08/23 05:37:12;;;;;;;18.42;10.85;;;15.50;99.90;;;;;;6116816;23;20017;-82
2022/08/23 05:39:38;;;;;;;16.75;11.40;;;15.50;99.90;;;;;;6117315;23;20022;-82
2022/08/23 05:42:05;;;;;;;14.45;10.60;;;15.60;99.90;;;;;;6118567;23;20021;-82
2022/08/23 05:44:31;;;;;;;14.75;9.60;;;15.60;99.90;;;;;;6119072;23;20018;-82
2022/08/23 05:46:57;;;;;;;9.10;7.70;;;15.70;99.90;;;;;;6117845;23;20490;-83
2022/08/23 05:49:22;;;;;;;13.60;8.45;;;15.70;99.90;;;;;;6094716;23;20080;-82
2022/08/23 05:51:48;;;;;;;13.75;10.00;;;15.70;99.90;;;;;;6119257;23;20097;-82
2022/08/23 05:54:14;;;;;;;13.68;8.95;;;15.70;99.90;;;;;;6118805;23;20435;-82
2022/08/23 05:56:42;;;;;;;14.75;10.35;;;15.80;99.90;;;;;;6094497;23;20017;-82
2022/08/23 05:59:11;;;;;;;17.67;10.73;;;15.80;99.90;;;;;;6094163;23;20342;-82
2022/08/23 06:01:38;;;;;;;16.92;13.00;;;15.80;99.90;;;;;;6093550;23;20397;-82
2022/08/23 06:04:06;;;;;;;18.17;13.35;;;15.90;99.90;;;;;;6118415;23;20069;-82
2022/08/23 06:06:33;;;;;;;22.90;15.48;;;16.00;99.90;;;;;;6093927;23;20096;-82
2022/08/23 06:08:59;;;;;;;20.70;16.20;;;16.10;99.90;;;;;;6118836;23;20049;-83
2022/08/23 06:11:27;;;;;;;21.20;16.95;;;16.30;99.90;;;;;;6094424;23;20025;-82
2022/08/23 06:13:56;;;;;;;20.40;14.63;;;16.40;99.90;;;;;;6093435;23;20010;-83
2022/08/23 06:16:25;;;;;;;19.20;15.00;;;16.60;99.90;;;;;;6118376;23;20022;-82
2022/08/23 06:18:52;;;;;;;18.92;15.52;;;16.80;99.90;;;;;;6094784;23;20398;-82
2022/08/23 06:21:18;;;;;;;21.58;15.10;;;16.90;99.90;;;;;;6093852;23;20041;-83
2022/08/23 06:23:47;;;;;;;23.70;15.13;;;17.00;99.90;;;;;;6094536;23;20026;-82
2022/08/23 06:26:18;;;;;;;23.17;14.90;;;17.10;99.90;;;;;;6094801;23;20363;-82
2022/08/23 06:28:45;;;;;;;19.08;14.50;;;17.20;99.90;;;;;;6117392;23;20021;-82
2022/08/23 06:31:11;;;;;;;22.00;14.20;;;17.30;99.90;;;;;;6118650;23;20469;-82
2022/08/23 06:33:41;;;;;;;26.85;14.98;;;17.40;99.90;;;;;;6118568;23;20394;-82
2022/08/23 06:36:12;;;;;;;21.88;15.23;;;17.50;99.90;;;;;;6118532;23;20406;-81
2022/08/23 06:38:39;;;;;;;19.38;14.20;;;17.60;99.90;;;;;;6094301;23;20108;-81
2022/08/23 06:41:08;;;;;;;18.02;13.68;;;17.70;99.90;;;;;;6094961;23;20018;-82
2022/08/23 06:43:35;;;;;;;18.55;13.45;;;17.70;99.90;;;;;;6117412;23;20030;-84
2022/08/23 06:46:12;;;;;;;19.15;13.40;;;17.90;99.90;;;;;;6095684;23;20018;-85
2022/08/23 06:48:38;;;;;;;19.50;13.68;;;17.90;99.90;;;;;;6094979;23;20347;-85
2022/08/23 06:51:13;;;;;;;15.65;13.05;;;18.00;99.90;;;;;;6095908;23;20443;-85
2022/08/23 06:53:39;;;;;;;16.80;12.48;;;18.10;99.90;;;;;;6120413;23;20070;-87
2022/08/23 06:56:06;;;;;;;42.35;16.35;;;18.20;99.90;;;;;;6119635;23;20466;-87
2022/08/23 06:58:32;;;;;;;18.85;13.02;;;18.20;99.90;;;;;;6094883;23;20480;-86
2022/08/23 07:01:10;;;;;;;57.78;20.38;;;18.30;99.90;;;;;;6119347;23;20507;-84
2022/08/23 07:03:35;;;;;;;21.13;11.30;;;18.50;99.90;;;;;;6094000;23;20024;-84
2022/08/23 07:06:01;;;;;;;14.43;10.57;;;18.60;99.90;;;;;;6119781;23;20100;-84
2022/08/23 07:08:27;;;;;;;16.75;10.82;;;18.70;99.90;;;;;;6117699;23;20392;-83
2022/08/23 07:10:55;;;;;;;18.27;10.95;;;18.80;99.90;;;;;;6118533;23;20061;-84
2022/08/23 07:13:21;;;;;;;14.52;10.05;;;18.90;99.90;;;;;;6093649;23;20324;-83
2022/08/23 07:15:47;;;;;;;25.02;11.10;;;19.00;99.90;;;;;;6095059;23;20021;-83
2022/08/23 07:18:13;;;;;;;16.48;9.90;;;19.10;99.90;;;;;;6093887;23;20477;-83
2022/08/23 07:20:39;;;;;;;17.73;9.98;;;19.20;99.90;;;;;;6094631;23;20459;-84
2022/08/23 07:23:04;;;;;;;15.45;9.38;;;19.30;99.90;;;;;;6095794;23;20018;-85
2022/08/23 07:25:31;;;;;;;17.10;10.13;;;19.40;99.90;;;;;;6118607;23;20014;-84
2022/08/23 07:27:57;;;;;;;14.55;8.88;;;19.50;99.90;;;;;;6118945;23;20022;-84
2022/08/23 07:30:24;;;;;;;14.35;8.30;;;19.60;99.90;;;;;;6117824;23;20418;-83
2022/08/23 07:32:49;;;;;;;16.25;7.57;;;19.80;99.90;;;;;;6093769;23;20090;-85
2022/08/23 07:35:15;;;;;;;13.05;7.07;;;19.90;99.90;;;;;;6093944;23;20355;-83
2022/08/23 07:37:41;;;;;;;12.82;7.55;;;20.00;99.90;;;;;;6117343;23;20014;-84
2022/08/23 07:40:08;;;;;;;13.52;7.15;;;20.00;99.90;;;;;;6095022;23;20029;-86
2022/08/23 07:42:33;;;;;;;11.35;6.70;;;20.10;99.90;;;;;;6092457;23;20026;-86
2022/08/23 07:44:59;;;;;;;13.35;6.32;;;20.30;99.90;;;;;;6093157;23;20022;-86
2022/08/23 07:47:27;;;;;;;10.70;5.63;;;20.30;99.90;;;;;;6092875;23;20048;-85
2022/08/23 07:49:53;;;;;;;12.50;6.88;;;20.50;99.90;;;;;;6092870;23;20468;-85
2022/08/23 07:52:18;;;;;;;11.63;7.00;;;20.50;99.90;;;;;;6091969;23;20029;-84
2022/08/23 07:54:44;;;;;;;13.52;6.43;;;20.70;99.90;;;;;;6093142;23;20331;-84
2022/08/23 07:57:10;;;;;;;13.05;7.05;;;20.80;99.90;;;;;;6116942;23;20029;-85
2022/08/23 07:59:36;;;;;;;35.72;12.73;;;20.90;99.90;;;;;;6092079;23;20146;-83
2022/08/23 08:02:01;;;;;;;23.92;10.18;;;21.00;99.90;;;;;;6117106;23;20021;-83
2022/08/23 08:04:27;;;;;;;14.85;7.03;;;21.10;99.90;;;;;;6118125;23;20610;-82
2022/08/23 08:06:53;;;;;;;12.98;6.40;;;21.30;99.90;;;;;;6117250;23;20029;-83
2022/08/23 08:09:19;;;;;;;13.45;5.93;;;21.40;99.90;;;;;;6117946;23;20021;-83
2022/08/23 08:11:46;;;;;;;10.23;5.15;;;21.40;99.90;;;;;;6093584;23;20025;-83
2022/08/23 08:14:13;;;;;;;12.60;5.15;;;21.50;99.90;;;;;;6116056;23;20104;-83
2022/08/23 08:16:43;;;;;;;9.55;4.60;;;21.60;99.90;;;;;;6117353;23;20053;-83
2022/08/23 08:19:10;;;;;;;8.80;4.05;;;21.80;99.90;;;;;;6093357;23;20390;-83
2022/08/23 08:21:38;;;;;;;10.75;3.92;;;21.90;99.90;;;;;;6117275;23;20022;-84
2022/08/23 08:24:06;;;;;;;11.55;3.88;;;22.00;99.90;;;;;;6117330;23;20053;-84
2022/08/23 08:26:31;;;;;;;15.52;3.58;;;22.10;99.90;;;;;;6117524;23;20109;-84
2022/08/23 08:28:57;;;;;;;19.05;4.65;;;22.20;99.90;;;;;;6116642;23;20443;-84
2022/08/23 08:31:25;;;;;;;7.97;3.75;;;22.40;99.90;;;;;;6117449;23;20084;-84
2022/08/23 08:33:51;;;;;;;19.20;4.18;;;22.50;99.90;;;;;;6117898;23;20339;-83
2022/08/23 08:36:28;;;;;;;10.52;3.42;;;22.50;99.90;;;;;;6092332;23;20026;-84
2022/08/23 08:38:53;;;;;;;7.05;3.78;;;22.50;99.90;;;;;;6093097;23;20439;-84
2022/08/23 08:41:31;;;;;;;13.10;3.80;;;22.40;99.90;;;;;;6117148;23;20026;-84
2022/08/23 08:44:02;;;;;;;14.70;4.68;;;22.40;99.90;;;;;;6117761;23;20098;-84
2022/08/23 08:46:44;;;;;;;9.32;4.50;;;22.40;99.90;;;;;;6116656;23;20498;-84
2022/08/23 08:49:19;;;;;;;7.63;4.22;;;22.50;99.90;;;;;;6092294;23;20018;-83
2022/08/23 08:51:54;;;;;;;15.13;5.40;;;22.50;99.90;;;;;;6118129;23;20474;-84
2022/08/23 08:54:24;;;;;;;14.80;4.43;;;22.80;99.90;;;;;;6093094;23;20033;-84
2022/08/23 08:56:54;;;;;;;15.52;5.20;;;22.90;99.90;;;;;;6092426;23;20026;-83
2022/08/23 08:59:25;;;;;;;11.70;4.60;;;23.00;99.90;;;;;;6117691;23;20027;-83
2022/08/23 09:01:51;;;;;;;11.75;4.50;;;23.20;99.90;;;;;;6116931;23;20026;-83
2022/08/23 09:04:18;;;;;;;15.27;4.30;;;23.30;99.90;;;;;;6092517;23;20025;-84
2022/08/23 09:06:58;;;;;;;15.25;4.82;;;23.40;99.90;;;;;;6117117;23;20029;-84
2022/08/23 09:09:33;;;;;;;10.77;4.13;;;23.60;99.90;;;;;;6092054;23;20431;-84
2022/08/23 09:12:09;;;;;;;8.98;3.85;;;23.80;99.90;;;;;;6093052;23;20028;-84
2022/08/23 09:14:46;;;;;;;16.88;3.53;;;23.90;99.90;;;;;;6117958;23;20391;-84
2022/08/23 09:17:20;;;;;;;9.48;3.67;;;24.00;99.90;;;;;;6115556;23;20349;-84
2022/08/23 09:19:49;;;;;;;9.18;3.83;;;24.10;99.90;;;;;;6117533;23;20081;-84
2022/08/23 09:22:23;;;;;;;7.72;3.25;;;24.20;99.90;;;;;;6117174;23;20392;-84
2022/08/23 09:24:49;;;;;;;14.77;4.18;;;24.30;99.90;;;;;;6092365;23;20022;-84
2022/08/23 09:27:14;;;;;;;9.25;3.47;;;24.40;99.90;;;;;;6116715;23;20328;-84
2022/08/23 09:29:55;;;;;;;13.38;3.33;;;24.40;99.90;;;;;;6093307;23;20307;-84
2022/08/23 09:32:32;;;;;;;10.63;3.80;;;24.40;99.90;;;;;;6115591;23;20022;-84
2022/08/23 09:35:07;;;;;;;8.52;3.13;;;24.50;99.90;;;;;;6093857;23;20014;-84
2022/08/23 09:37:45;;;;;;;10.15;3.30;;;24.60;99.90;;;;;;6091908;23;20049;-84
2022/08/23 09:40:19;;;;;;;12.95;3.75;;;24.70;99.90;;;;;;6092451;23;20022;-84
2022/08/23 09:43:02;;;;;;;14.38;2.97;;;24.70;99.90;;;;;;6116646;23;20092;-85
2022/08/23 09:45:31;;;;;;;14.50;2.60;;;24.80;99.90;;;;;;6091052;23;20443;-84
2022/08/23 09:47:57;;;;;;;9.68;2.47;;;25.00;99.90;;;;;;6093241;23;20533;-84
2022/08/23 09:50:25;;;;;;;8.45;2.45;;;25.00;99.90;;;;;;6092298;23;20117;-84
2022/08/23 09:53:02;;;;;;;6.25;1.80;;;25.10;99.90;;;;;;6092455;23;20040;-84
2022/08/23 09:55:34;;;;;;;7.03;2.13;;;25.20;99.90;;;;;;6092596;23;20026;-84
2022/08/23 09:58:06;;;;;;;13.40;2.75;;;25.30;99.90;;;;;;6092811;23;20014;-84
2022/08/23 10:00:35;;;;;;;9.88;2.10;;;25.40;99.90;;;;;;6091716;23;20099;-85
2022/08/23 10:03:19;;;;;;;7.05;2.00;;;25.50;99.90;;;;;;6092950;23;20117;-84
2022/08/23 10:05:50;;;;;;;8.25;2.20;;;25.60;99.90;;;;;;6116413;23;20344;-84
2022/08/23 10:08:27;;;;;;;9.45;2.08;;;25.70;99.90;;;;;;6092559;23;20022;-84
2022/08/23 10:11:01;;;;;;;6.03;1.90;;;25.60;99.90;;;;;;6117412;23;20018;-84
2022/08/23 10:13:27;;;;;;;7.43;2.10;;;25.70;99.90;;;;;;6114959;23;20018;-85
2022/08/23 10:15:57;;;;;;;6.00;2.00;;;25.70;99.90;;;;;;6093200;23;20033;-85
2022/08/23 10:18:23;;;;;;;11.60;2.70;;;25.80;99.90;;;;;;6116427;23;20104;-85
2022/08/23 10:20:54;;;;;;;11.63;3.33;;;26.00;99.90;;;;;;6116844;23;20053;-85
2022/08/23 10:23:44;;;;;;;12.45;2.78;;;26.10;99.90;;;;;;6092107;23;20446;-85
2022/08/23 10:26:20;;;;;;;12.38;2.55;;;26.10;99.90;;;;;;6094612;23;20025;-86
2022/08/23 10:31:43;;;;;;;;;;;26.40;99.90;;;;;;6118660;23;20380;-85
2022/08/23 10:34:16;;;;;;;14.65;3.25;;;26.40;99.90;;;;;;6117331;23;19939;-85
2022/08/23 10:36:43;;;;;;;5.80;2.20;;;26.50;99.90;;;;;;6119351;23;20029;-85
2022/08/23 10:39:21;;;;;;;7.80;2.25;;;26.60;99.90;;;;;;6094181;23;20101;-85
2022/08/23 10:41:50;;;;;;;7.05;2.13;;;26.70;99.90;;;;;;6117573;23;20117;-85
2022/08/23 10:44:34;;;;;;;6.45;2.28;;;26.80;99.90;;;;;;6093857;23;20018;-85
2022/08/23 10:47:18;;;;;;;8.38;2.33;;;26.90;99.90;;;;;;6118576;23;20022;-86
2022/08/23 10:49:49;;;;;;;6.00;1.90;;;27.00;99.90;;;;;;6118494;23;20097;-85
2022/08/23 10:52:21;;;;;;;7.97;2.15;;;27.00;99.90;;;;;;6094377;23;20026;-86
2022/08/23 10:54:59;;;;;;;9.20;2.25;;;27.00;99.90;;;;;;6093297;23;20369;-87
2022/08/23 10:57:36;;;;;;;6.60;2.50;;;27.10;99.90;;;;;;6093111;23;20021;-85
2022/08/23 11:00:08;;;;;;;9.43;2.40;;;27.20;99.90;;;;;;6095001;23;20018;-85
2022/08/23 11:02:41;;;;;;;7.30;2.22;;;27.20;99.90;;;;;;6116759;23;20029;-85
2022/08/23 11:05:23;;;;;;;7.07;1.90;;;27.30;99.90;;;;;;6093939;23;20029;-84
2022/08/23 11:07:59;;;;;;;7.63;2.43;;;27.30;99.90;;;;;;6118731;23;20033;-85
2022/08/23 11:10:33;;;;;;;9.88;2.08;;;27.30;99.90;;;;;;6092999;23;20360;-85
2022/08/23 11:13:05;;;;;;;8.23;2.78;;;27.30;99.90;;;;;;6094387;23;20014;-85
2022/08/23 11:15:42;;;;;;;12.75;3.13;;;27.30;99.90;;;;;;6093599;23;20026;-85
2022/08/23 11:18:11;;;;;;;11.70;2.50;;;27.30;99.90;;;;;;6094223;23;20076;-85
2022/08/23 11:20:49;;;;;;;7.53;2.72;;;27.30;99.90;;;;;;6094057;23;20085;-85
2022/08/23 11:23:41;;;;;;;9.65;2.08;;;27.30;99.90;;;;;;6093269;23;20025;-85
2022/08/23 11:26:10;;;;;;;7.87;2.37;;;27.30;99.90;;;;;;6094039;23;20018;-85
2022/08/23 11:28:43;;;;;;;7.53;2.65;;;27.30;99.90;;;;;;6117480;23;20109;-85
2022/08/23 11:31:09;;;;;;;9.20;2.28;;;27.40;99.90;;;;;;6092777;23;20028;-85
2022/08/23 11:33:49;;;;;;;6.18;2.20;;;27.40;99.90;;;;;;6093964;23;20060;-84
2022/08/23 11:36:20;;;;;;;8.18;2.15;;;27.40;99.90;;;;;;6093102;23;20407;-85
2022/08/23 11:38:46;;;;;;;5.13;1.50;;;27.40;99.90;;;;;;6093661;23;20471;-85
2022/08/23 11:41:18;;;;;;;8.20;2.08;;;27.40;99.90;;;;;;6117900;23;20160;-85
2022/08/23 11:43:48;;;;;;;8.85;1.90;;;27.40;99.90;;;;;;6118428;23;20435;-85
2022/08/23 11:46:20;;;;;;;8.55;1.67;;;27.40;99.90;;;;;;6117241;23;20021;-84
2022/08/23 11:48:57;;;;;;;5.72;1.65;;;27.40;99.90;;;;;;6094511;23;20014;-85
2022/08/23 11:51:43;;;;;;;8.15;1.90;;;27.30;99.90;;;;;;6117812;23;20022;-85
2022/08/23 11:54:26;;;;;;;7.68;1.80;;;27.40;99.90;;;;;;6094096;23;20080;-85
2022/08/23 11:57:13;;;;;;;6.32;1.70;;;27.50;99.90;;;;;;6094332;23;20014;-85
2022/08/23 11:59:58;;;;;;;7.00;1.77;;;27.50;99.90;;;;;;6117848;23;20044;-86
2022/08/23 12:02:39;;;;;;;9.52;1.85;;;27.60;99.90;;;;;;6117097;23;20378;-84
2022/08/23 12:05:20;;;;;;;8.35;2.00;;;27.60;99.90;;;;;;6093452;23;20140;-85
2022/08/23 12:08:12;;;;;;;10.05;2.00;;;27.50;99.90;;;;;;6093657;23;20042;-84
2022/08/23 12:10:39;;;;;;;7.30;1.90;;;27.50;99.90;;;;;;6094201;23;20018;-86
2022/08/23 12:13:17;;;;;;;6.18;1.70;;;27.50;99.90;;;;;;6117287;23;20258;-85
2022/08/23 12:16:12;;;;;;;4.97;1.63;;;27.50;99.00;;;;;;6093583;23;20026;-85
2022/08/23 12:18:41;;;;;;;4.47;1.35;;;27.50;99.40;;;;;;6117937;23;20029;-85
2022/08/23 12:21:15;;;;;;;5.47;1.83;;;27.60;99.90;;;;;;6093489;23;20026;-84
2022/08/23 12:23:45;;;;;;;7.50;2.10;;;27.80;99.90;;;;;;6094174;23;20472;-86
2022/08/23 12:26:20;;;;;;;5.25;1.40;;;27.90;99.90;;;;;;6092691;23;20021;-84
2022/08/23 12:28:51;;;;;;;4.40;1.50;;;28.10;98.70;;;;;;6093951;23;20779;-85
2022/08/23 12:31:26;;;;;;;4.03;1.48;;;28.20;98.70;;;;;;6117675;23;20021;-84
2022/08/23 12:34:14;;;;;;;6.53;1.60;;;28.40;99.10;;;;;;6116145;23;20026;-84
2022/08/23 12:37:03;;;;;;;5.38;1.80;;;28.50;98.80;;;;;;6092816;23;20022;-85
2022/08/23 12:39:35;;;;;;;9.30;1.67;;;28.60;98.30;;;;;;6093438;23;20442;-85
2022/08/23 12:42:15;;;;;;;6.75;1.80;;;28.60;98.00;;;;;;6092119;23;20080;-85
2022/08/23 12:44:44;;;;;;;5.90;1.52;;;28.40;97.20;;;;;;6093513;23;20625;-86
2022/08/23 12:47:19;;;;;;;7.55;1.70;;;28.30;97.50;;;;;;6117891;23;20451;-93
2022/08/23 12:50:05;;;;;;;5.57;1.88;;;28.20;97.70;;;;;;6118783;23;20061;-86
2022/08/23 12:52:33;;;;;;;6.57;2.20;;;28.20;98.10;;;;;;6093844;23;20029;-87
2022/08/23 12:55:00;;;;;;;7.70;1.80;;;28.00;97.50;;;;;;6093667;23;20018;-87
2022/08/23 12:57:32;;;;;;;5.47;1.67;;;28.00;97.60;;;;;;6118398;23;20025;-87
2022/08/23 13:00:13;;;;;;;8.02;1.60;;;27.90;97.80;;;;;;6094964;23;20053;-87
2022/08/23 13:02:46;;;;;;;7.95;1.83;;;27.90;98.70;;;;;;6093296;23;20477;-86
2022/08/23 13:05:33;;;;;;;7.22;1.67;;;27.90;98.50;;;;;;6118419;23;20014;-87
2022/08/23 13:08:07;;;;;;;5.43;1.70;;;27.90;99.60;;;;;;6094800;23;20443;-86